createdAt,value
2019-05-05T00:01:55.365Z,30.70
2019-05-05T00:04:45.454Z,30.83
2019-05-05T00:07:25.355Z,30.87
2019-05-05T00:10:00.479Z,30.50
2019-05-05T00:12:55.111Z,31.13
2019-05-05T00:15:48.880Z,31.00
2019-05-05T00:18:26.022Z,31.47
2019-05-05T00:21:00.812Z,31.43
2019-05-05T00:23:35.723Z,31.47
2019-05-05T00:26:11.564Z,30.73
2019-05-05T00:28:46.408Z,30.90
2019-05-05T00:31:21.366Z,31.20
2019-05-05T00:33:56.267Z,30.93
2019-05-05T00:36:31.107Z,30.33
2019-05-05T00:39:09.302Z,32.07
2019-05-05T00:41:44.898Z,32.57
2019-05-05T00:44:19.871Z,31.63
2019-05-05T00:47:19.727Z,31.63
2019-05-05T00:49:56.290Z,31.00
2019-05-05T00:52:31.212Z,31.20
2019-05-05T00:55:07.368Z,31.10
2019-05-05T00:57:42.268Z,31.17
2019-05-05T01:00:29.491Z,31.07
2019-05-05T01:03:04.818Z,30.80
2019-05-05T01:05:55.330Z,31.23
2019-05-05T01:08:30.243Z,30.77
2019-05-05T01:11:05.204Z,30.80
2019-05-05T01:13:40.136Z,31.10
2019-05-05T01:16:15.313Z,30.70
2019-05-05T01:18:50.363Z,30.80
2019-05-05T01:21:25.208Z,31.03
2019-05-05T01:24:00.108Z,31.30
2019-05-05T01:26:35.483Z,31.37
2019-05-05T01:29:14.565Z,30.47
2019-05-05T01:31:49.332Z,31.30
2019-05-05T01:34:29.200Z,31.03
2019-05-05T01:37:10.792Z,32.10
2019-05-05T01:39:58.144Z,30.73
2019-05-05T01:42:35.137Z,31.33
2019-05-05T01:45:09.779Z,30.73
2019-05-05T01:47:45.316Z,31.40
2019-05-05T01:50:21.385Z,30.43
2019-05-05T01:52:56.405Z,31.17
2019-05-05T01:55:31.328Z,30.80
2019-05-05T01:58:06.728Z,30.87
2019-05-05T02:00:41.652Z,31.63
2019-05-05T02:03:16.556Z,31.03
2019-05-05T02:05:51.631Z,31.37
2019-05-05T02:08:26.540Z,31.30
2019-05-05T02:11:01.467Z,31.50
2019-05-05T02:13:36.371Z,31.30
2019-05-05T02:16:11.308Z,32.03
2019-05-05T02:18:46.228Z,31.10
2019-05-05T02:21:21.144Z,32.97
2019-05-05T02:23:56.058Z,30.53
2019-05-05T02:26:30.992Z,31.47
2019-05-05T02:29:20.844Z,30.93
2019-05-05T02:32:15.741Z,30.73
2019-05-05T02:34:56.210Z,31.17
2019-05-05T02:37:31.507Z,30.37
2019-05-05T02:40:09.448Z,31.13
2019-05-05T02:42:46.518Z,31.93
2019-05-05T02:45:37.064Z,30.93
2019-05-05T02:48:15.161Z,31.30
2019-05-05T02:51:01.581Z,30.23
2019-05-05T02:53:37.400Z,30.07
2019-05-05T02:56:17.865Z,30.80
2019-05-05T02:58:55.785Z,30.97
2019-05-05T03:01:50.397Z,31.47
2019-05-05T03:04:26.280Z,30.17
2019-05-05T03:07:04.682Z,32.27
2019-05-05T03:09:41.049Z,30.40
2019-05-05T03:12:17.947Z,31.03
2019-05-05T03:14:55.298Z,30.03
2019-05-05T03:17:30.279Z,30.93
2019-05-05T03:20:05.324Z,30.37
2019-05-05T03:22:40.508Z,30.40
2019-05-05T03:25:16.416Z,30.43
2019-05-05T03:27:51.312Z,30.90
2019-05-05T03:30:26.318Z,30.80
2019-05-05T03:33:05.113Z,30.80
2019-05-05T03:35:38.513Z,30.57
2019-05-05T03:38:14.198Z,30.53
2019-05-05T03:40:51.436Z,30.73
2019-05-05T03:43:30.298Z,28.97
2019-05-05T03:46:07.662Z,30.37
2019-05-05T03:48:43.832Z,30.17
2019-05-05T03:51:21.083Z,30.13
2019-05-05T03:53:55.419Z,29.93
2019-05-05T03:56:30.312Z,30.10
2019-05-05T03:59:05.439Z,30.13
2019-05-05T04:01:46.896Z,29.60
2019-05-05T04:04:29.652Z,30.30
2019-05-05T04:07:04.848Z,31.20
2019-05-05T04:09:39.850Z,30.17
2019-05-05T04:12:14.671Z,29.17
2019-05-05T04:14:51.157Z,30.47
2019-05-05T04:17:50.627Z,29.77
2019-05-05T04:20:39.825Z,30.60
2019-05-05T04:23:14.573Z,30.30
2019-05-05T04:25:49.306Z,30.13
2019-05-05T04:28:24.208Z,29.77
2019-05-05T04:30:58.975Z,29.50
2019-05-05T04:33:34.219Z,30.37
2019-05-05T04:36:09.303Z,30.10
2019-05-05T04:38:44.164Z,30.03
2019-05-05T04:41:18.931Z,30.40
2019-05-05T04:43:54.715Z,30.40
2019-05-05T04:46:29.687Z,30.03
2019-05-05T04:49:14.837Z,30.80
2019-05-05T04:51:50.865Z,30.77
2019-05-05T04:54:30.655Z,30.20
2019-05-05T04:57:05.494Z,32.00
2019-05-05T04:59:40.237Z,31.13
2019-05-05T05:02:49.461Z,29.50
2019-05-05T05:05:28.297Z,30.73
2019-05-05T05:08:03.700Z,31.10
2019-05-05T05:10:38.580Z,31.30
2019-05-05T05:13:13.878Z,30.50
2019-05-05T05:15:48.816Z,31.07
2019-05-05T05:18:24.186Z,31.23
2019-05-05T05:20:59.032Z,31.43
2019-05-05T05:23:34.199Z,31.50
2019-05-05T05:26:08.995Z,30.70
2019-05-05T05:28:44.788Z,30.67
2019-05-05T05:31:19.752Z,31.57
2019-05-05T05:33:54.946Z,31.93
2019-05-05T05:36:30.024Z,30.10
2019-05-05T05:39:13.882Z,30.90
2019-05-05T05:41:48.320Z,30.80
2019-05-05T05:44:40.938Z,31.17
2019-05-05T05:47:20.624Z,32.20
2019-05-05T05:50:10.791Z,30.57
2019-05-05T05:52:45.531Z,31.33
2019-05-05T05:55:20.279Z,29.63
2019-05-05T05:57:55.008Z,30.67
2019-05-05T06:00:29.752Z,31.43
2019-05-05T06:03:04.633Z,31.00
2019-05-05T06:05:39.453Z,31.70
2019-05-05T06:08:14.369Z,31.60
2019-05-05T06:10:49.121Z,30.97
2019-05-05T06:13:24.217Z,31.20
2019-05-05T06:15:59.248Z,31.53
2019-05-05T06:18:34.533Z,31.13
2019-05-05T06:21:09.576Z,32.20
2019-05-05T06:23:44.381Z,31.90
2019-05-05T06:26:19.141Z,31.83
2019-05-05T06:28:54.921Z,32.17
2019-05-05T06:31:29.649Z,33.07
2019-05-05T06:34:04.564Z,32.77
2019-05-05T06:36:39.444Z,33.33
2019-05-05T06:39:14.182Z,32.87
2019-05-05T06:41:55.578Z,33.53
2019-05-05T06:44:37.512Z,32.57
2019-05-05T06:47:15.008Z,33.80
2019-05-05T06:49:49.910Z,34.63
2019-05-05T06:52:24.896Z,33.60
2019-05-05T06:54:59.736Z,32.80
2019-05-05T06:57:34.554Z,32.60
2019-05-05T07:00:09.868Z,33.70
2019-05-05T07:02:44.607Z,33.10
2019-05-05T07:05:19.436Z,32.10
2019-05-05T07:07:54.163Z,32.93
2019-05-05T07:10:30.055Z,31.80
2019-05-05T07:13:05.068Z,31.50
2019-05-05T07:15:46.806Z,29.07
2019-05-05T07:18:21.764Z,30.73
2019-05-05T07:20:56.656Z,31.57
2019-05-05T07:23:31.473Z,31.07
2019-05-05T07:26:06.436Z,32.23
2019-05-05T07:28:41.319Z,31.83
2019-05-05T07:31:16.236Z,31.43
2019-05-05T07:33:51.036Z,29.60
2019-05-05T07:36:46.744Z,31.53
2019-05-05T07:39:23.640Z,32.00
2019-05-05T07:41:58.064Z,29.93
2019-05-05T07:44:33.905Z,30.33
2019-05-05T07:47:08.880Z,31.37
2019-05-05T07:49:44.173Z,31.10
2019-05-05T07:52:19.010Z,28.90
2019-05-05T07:54:55.131Z,30.90
2019-05-05T07:57:30.239Z,31.07
2019-05-05T08:00:06.693Z,28.13
2019-05-05T08:02:43.750Z,30.53
2019-05-05T08:05:18.088Z,30.13
2019-05-05T08:07:53.907Z,31.10
2019-05-05T08:10:28.839Z,28.90
2019-05-05T08:13:04.789Z,30.40
2019-05-05T08:15:55.991Z,31.40
2019-05-05T08:18:25.761Z,29.70
2019-05-05T08:21:04.301Z,30.93
2019-05-05T08:23:48.898Z,31.13
2019-05-05T08:26:44.082Z,28.53
2019-05-05T08:29:34.727Z,29.90
2019-05-05T08:32:16.311Z,30.33
2019-05-05T08:34:59.742Z,29.83
2019-05-05T08:37:27.639Z,29.63
2019-05-05T08:40:04.303Z,29.63
2019-05-05T08:42:38.930Z,30.60
2019-05-05T08:45:13.924Z,30.63
2019-05-05T08:47:48.730Z,30.40
2019-05-05T08:50:26.852Z,30.10
2019-05-05T08:53:01.284Z,30.10
2019-05-05T08:55:36.107Z,29.97
2019-05-05T08:58:10.863Z,30.73
2019-05-05T09:00:45.755Z,30.13
2019-05-05T09:03:20.585Z,30.37
2019-05-05T09:05:55.395Z,31.43
2019-05-05T09:08:30.203Z,30.00
2019-05-05T09:11:05.127Z,31.50
2019-05-05T09:13:40.007Z,30.17
2019-05-05T09:16:14.743Z,30.40
2019-05-05T09:19:05.483Z,30.30
2019-05-05T09:21:40.284Z,37.43
2019-05-05T09:24:20.452Z,30.83
2019-05-05T09:27:16.805Z,31.10
2019-05-05T09:29:51.560Z,30.43
2019-05-05T09:32:26.396Z,30.23
2019-05-05T09:35:01.374Z,30.23
2019-05-05T09:37:36.436Z,30.17
2019-05-05T09:40:13.749Z,30.30
2019-05-05T09:42:48.088Z,30.10
2019-05-05T09:45:24.457Z,29.87
2019-05-05T09:47:59.369Z,28.87
2019-05-05T09:50:34.299Z,29.90
2019-05-05T09:53:10.589Z,29.80
2019-05-05T09:55:45.439Z,29.47
2019-05-05T09:58:20.248Z,29.43
2019-05-05T10:00:55.774Z,30.30
2019-05-05T10:03:30.520Z,29.23
2019-05-05T10:06:05.498Z,29.60
2019-05-05T10:08:41.432Z,30.20
2019-05-05T10:11:16.809Z,29.67
2019-05-05T10:13:51.737Z,29.53
2019-05-05T10:16:26.480Z,29.13
2019-05-05T10:19:01.388Z,29.60
2019-05-05T10:21:36.224Z,28.57
2019-05-05T10:24:28.514Z,28.50
2019-05-05T10:26:58.465Z,28.97
2019-05-05T10:29:32.564Z,29.80
2019-05-05T10:32:07.443Z,29.03
2019-05-05T10:34:43.957Z,29.20
2019-05-05T10:37:19.121Z,29.20
2019-05-05T10:40:00.506Z,28.93
2019-05-05T10:42:49.592Z,28.87
2019-05-05T10:45:26.101Z,29.23
2019-05-05T10:48:00.835Z,29.50
2019-05-05T10:50:35.756Z,29.17
2019-05-05T10:53:10.627Z,29.50
2019-05-05T10:55:45.568Z,29.57
2019-05-05T10:58:20.481Z,29.20
2019-05-05T11:01:04.189Z,30.57
2019-05-05T11:03:45.448Z,30.37
2019-05-05T11:06:20.915Z,28.70
2019-05-05T11:08:55.796Z,29.17
2019-05-05T11:11:30.684Z,28.40
2019-05-05T11:14:05.591Z,29.23
2019-05-05T11:16:40.488Z,29.57
2019-05-05T11:19:15.455Z,28.57
2019-05-05T11:21:50.183Z,28.93
2019-05-05T11:24:25.083Z,29.33
2019-05-05T11:26:59.828Z,29.77
2019-05-05T11:29:38.117Z,29.43
2019-05-05T11:32:18.144Z,29.50
2019-05-05T11:34:53.412Z,29.47
2019-05-05T11:37:28.385Z,29.03
2019-05-05T11:40:04.224Z,28.97
2019-05-05T11:42:39.236Z,29.30
2019-05-05T11:45:14.874Z,29.47
2019-05-05T11:47:49.741Z,29.57
2019-05-05T11:50:24.492Z,29.53
2019-05-05T11:52:59.232Z,29.10
2019-05-05T11:55:34.074Z,29.20
2019-05-05T11:58:08.903Z,29.50
2019-05-05T12:00:44.061Z,29.23
2019-05-05T12:03:20.023Z,28.93
2019-05-05T12:05:55.055Z,29.10
2019-05-05T12:08:29.788Z,29.10
2019-05-05T12:11:14.859Z,28.97
2019-05-05T12:13:49.413Z,29.67
2019-05-05T12:16:31.327Z,29.30
2019-05-05T12:19:10.285Z,29.60
2019-05-05T12:21:45.044Z,29.00
2019-05-05T12:24:24.861Z,29.50
2019-05-05T12:27:14.004Z,29.43
2019-05-05T12:30:10.816Z,29.40
2019-05-05T12:32:45.673Z,29.97
2019-05-05T12:35:20.647Z,29.83
2019-05-05T12:37:55.380Z,29.37
2019-05-05T12:40:30.237Z,29.97
2019-05-05T12:43:05.123Z,29.10
2019-05-05T12:45:43.846Z,28.93
2019-05-05T12:48:30.415Z,29.20
2019-05-05T12:51:06.479Z,29.60
2019-05-05T12:53:41.284Z,29.60
2019-05-05T12:56:16.175Z,29.30
2019-05-05T12:58:51.017Z,28.90
2019-05-05T13:01:33.550Z,29.50
2019-05-05T13:04:08.592Z,29.47
2019-05-05T13:06:45.023Z,29.10
2019-05-05T13:09:20.980Z,28.77
2019-05-05T13:11:55.888Z,29.17
2019-05-05T13:14:33.499Z,28.67
2019-05-05T13:17:07.864Z,29.63
2019-05-05T13:19:55.039Z,28.63
2019-05-05T13:22:41.391Z,29.13
2019-05-05T13:25:55.418Z,29.10
2019-05-05T13:28:34.407Z,29.97
2019-05-05T13:31:10.307Z,29.60
2019-05-05T13:34:09.893Z,29.63
2019-05-05T13:36:46.037Z,29.17
2019-05-05T13:39:21.403Z,29.77
2019-05-05T13:41:56.712Z,29.50
2019-05-05T13:45:09.101Z,30.70
2019-05-05T13:47:43.848Z,29.30
2019-05-05T13:50:31.592Z,30.40
2019-05-05T13:53:06.421Z,29.60
2019-05-05T13:55:42.341Z,29.13
2019-05-05T13:58:17.953Z,29.10
2019-05-05T14:00:54.617Z,29.37
2019-05-05T14:03:30.552Z,29.13
2019-05-05T14:06:05.623Z,29.57
2019-05-05T14:08:40.517Z,29.57
2019-05-05T14:11:15.497Z,29.20
2019-05-05T14:13:50.231Z,29.47
2019-05-05T14:16:27.192Z,29.37
2019-05-05T14:19:04.252Z,29.30
2019-05-05T14:21:38.707Z,29.27
2019-05-05T14:24:23.475Z,29.37
2019-05-05T14:26:58.391Z,29.77
2019-05-05T14:29:45.618Z,29.33
2019-05-05T14:32:21.481Z,28.63
2019-05-05T14:35:04.016Z,29.07
2019-05-05T14:37:44.373Z,29.53
2019-05-05T14:40:19.100Z,29.53
2019-05-05T14:42:54.054Z,28.57
2019-05-05T14:45:28.998Z,29.47
2019-05-05T14:48:04.005Z,29.70
2019-05-05T14:50:39.067Z,30.43
2019-05-05T14:53:14.498Z,29.73
2019-05-05T14:55:49.588Z,30.93
2019-05-05T14:58:24.500Z,29.30
2019-05-05T15:00:59.339Z,30.00
2019-05-05T15:03:34.382Z,30.80
2019-05-05T15:06:25.219Z,29.80
2019-05-05T15:09:24.944Z,29.33
2019-05-05T15:12:14.390Z,30.00
2019-05-05T15:14:49.344Z,30.30
2019-05-05T15:17:24.646Z,29.67
2019-05-05T15:19:59.711Z,30.03
2019-05-05T15:22:34.467Z,29.43
2019-05-05T15:25:09.372Z,29.40
2019-05-05T15:27:45.085Z,29.93
2019-05-05T15:30:24.164Z,29.17
2019-05-05T15:32:57.756Z,30.03
2019-05-05T15:35:34.031Z,29.97
2019-05-05T15:38:08.858Z,30.27
2019-05-05T15:40:44.681Z,29.57
2019-05-05T15:43:20.407Z,30.27
2019-05-05T15:45:55.348Z,29.87
2019-05-05T15:48:30.243Z,29.13
2019-05-05T15:51:05.075Z,30.67
2019-05-05T15:53:39.828Z,30.03
2019-05-05T15:56:14.745Z,30.73
2019-05-05T15:58:49.672Z,29.87
2019-05-05T16:01:24.483Z,30.27
2019-05-05T16:04:00.090Z,30.27
2019-05-05T16:06:34.836Z,30.27
2019-05-05T16:09:09.695Z,30.87
2019-05-05T16:11:46.744Z,30.40
2019-05-05T16:14:23.713Z,30.70
2019-05-05T16:17:16.507Z,31.00
2019-05-05T16:19:58.347Z,30.97
2019-05-05T16:22:41.009Z,30.23
2019-05-05T16:25:17.088Z,30.37
2019-05-05T16:27:52.627Z,30.33
2019-05-05T16:30:28.206Z,31.07
2019-05-05T16:33:04.244Z,31.27
2019-05-05T16:35:39.884Z,31.20
2019-05-05T16:38:27.605Z,31.63
2019-05-05T16:41:02.880Z,30.63
2019-05-05T16:43:38.130Z,30.77
2019-05-05T16:46:14.495Z,30.40
2019-05-05T16:48:50.887Z,30.67
2019-05-05T16:51:30.084Z,31.00
2019-05-05T16:54:09.824Z,30.97
2019-05-05T16:56:45.011Z,30.87
2019-05-05T16:59:20.488Z,30.53
2019-05-05T17:01:55.947Z,31.10
2019-05-05T17:04:43.361Z,30.70
2019-05-05T17:07:18.883Z,31.30
2019-05-05T17:09:54.679Z,30.90
2019-05-05T17:12:30.242Z,31.37
2019-05-05T17:15:35.188Z,31.10
2019-05-05T17:18:36.098Z,31.07
2019-05-05T17:21:21.103Z,31.40
2019-05-05T17:23:56.515Z,30.80
2019-05-05T17:26:31.934Z,31.73
2019-05-05T17:29:07.259Z,31.23
2019-05-05T17:31:44.392Z,31.50
2019-05-05T17:34:19.948Z,30.83
2019-05-05T17:36:55.339Z,31.07
2019-05-05T17:39:34.509Z,31.70
2019-05-05T17:42:23.944Z,31.27
2019-05-05T17:45:27.273Z,31.20
2019-05-05T17:48:14.177Z,31.33
2019-05-05T17:51:15.095Z,31.10
2019-05-05T17:53:57.660Z,30.90
2019-05-05T17:56:33.679Z,31.50
2019-05-05T17:59:09.559Z,31.23
2019-05-05T18:01:45.160Z,31.13
2019-05-05T18:04:20.993Z,31.00
2019-05-05T18:07:08.569Z,31.20
2019-05-05T18:10:06.099Z,31.20
2019-05-05T18:12:59.274Z,31.30
2019-05-05T18:15:51.458Z,30.80
2019-05-05T18:18:27.133Z,31.17
2019-05-05T18:21:02.571Z,31.20
2019-05-05T18:23:38.096Z,31.57
2019-05-05T18:26:13.808Z,32.37
2019-05-05T18:28:49.142Z,31.67
2019-05-05T18:31:24.660Z,31.70
2019-05-05T18:34:01.209Z,31.57
2019-05-05T18:36:36.888Z,31.97
2019-05-05T18:39:13.757Z,31.87
2019-05-05T18:41:56.208Z,31.63
2019-05-05T18:44:35.418Z,32.30
2019-05-05T18:47:20.901Z,34.37
2019-05-05T18:49:57.503Z,32.03
2019-05-05T18:52:32.324Z,33.43
2019-05-05T18:55:07.245Z,32.10
2019-05-05T18:57:43.484Z,32.23
2019-05-05T19:00:28.989Z,33.50
2019-05-05T19:03:17.694Z,32.13
2019-05-05T19:06:08.475Z,32.33
2019-05-05T19:08:54.110Z,34.45
2019-05-05T19:11:24.608Z,32.97
2019-05-05T19:14:00.897Z,33.20
2019-05-05T19:16:36.038Z,34.00
2019-05-05T19:19:11.183Z,33.77
2019-05-05T19:21:50.891Z,32.80
2019-05-05T19:24:25.916Z,34.57
2019-05-05T19:27:03.713Z,32.30
2019-05-05T19:29:45.967Z,32.63
2019-05-05T19:32:18.965Z,31.93
2019-05-05T19:34:54.351Z,31.93
2019-05-05T19:37:29.275Z,32.03
2019-05-05T19:40:06.091Z,31.77
2019-05-05T19:42:41.137Z,31.67
2019-05-05T19:45:16.635Z,32.03
2019-05-05T19:47:53.244Z,31.63
2019-05-05T19:50:44.476Z,31.40
2019-05-05T19:53:24.641Z,33.43
2019-05-05T19:55:59.804Z,31.40
2019-05-05T19:58:36.614Z,31.40
2019-05-05T20:01:12.180Z,31.83
2019-05-05T20:03:47.842Z,31.83
2019-05-05T20:06:23.686Z,31.67
2019-05-05T20:08:58.547Z,32.10
2019-05-05T20:11:34.034Z,32.17
2019-05-05T20:14:10.368Z,31.87
2019-05-05T20:17:04.652Z,32.40
2019-05-05T20:19:44.833Z,31.83
2019-05-05T20:22:19.601Z,32.90
2019-05-05T20:24:54.448Z,32.07
2019-05-05T20:27:29.343Z,31.23
2019-05-05T20:30:06.662Z,31.60
2019-05-05T20:32:56.080Z,31.13
2019-05-05T20:35:37.712Z,30.90
2019-05-05T20:38:34.547Z,32.30
2019-05-05T20:41:16.539Z,32.90
2019-05-05T20:43:54.350Z,33.63
2019-05-05T20:46:29.301Z,32.37
2019-05-05T20:49:06.783Z,32.70
2019-05-05T20:51:41.621Z,32.20
2019-05-05T20:54:16.448Z,31.53
2019-05-05T20:56:51.220Z,31.50
2019-05-05T20:59:30.683Z,31.50
2019-05-05T21:02:04.443Z,31.47
2019-05-05T21:04:39.136Z,30.97
2019-05-05T21:07:14.116Z,30.80
2019-05-05T21:09:48.984Z,31.50
2019-05-05T21:12:25.816Z,30.77
2019-05-05T21:15:00.302Z,31.43
2019-05-05T21:17:35.245Z,31.00
2019-05-05T21:20:10.659Z,31.67
2019-05-05T21:23:03.622Z,31.80
2019-05-05T21:25:41.325Z,31.07
2019-05-05T21:28:16.154Z,31.17
2019-05-05T21:30:50.890Z,30.87
2019-05-05T21:33:25.641Z,30.87
2019-05-05T21:36:00.375Z,30.53
2019-05-05T21:38:35.712Z,31.13
2019-05-05T21:41:10.692Z,30.73
2019-05-05T21:43:46.840Z,30.00
2019-05-05T21:46:23.478Z,30.67
2019-05-05T21:48:58.049Z,30.87
2019-05-05T21:51:39.250Z,30.30
2019-05-05T21:54:31.827Z,30.27
2019-05-05T21:57:14.811Z,31.23
2019-05-05T21:59:55.400Z,30.90
2019-05-05T22:02:26.235Z,31.23
2019-05-05T22:05:00.991Z,31.50
2019-05-05T22:07:35.807Z,30.60
2019-05-05T22:10:10.694Z,30.23
2019-05-05T22:12:45.428Z,30.37
2019-05-05T22:15:20.233Z,31.00
2019-05-05T22:17:54.976Z,30.53
2019-05-05T22:20:38.216Z,30.43
2019-05-05T22:23:14.549Z,30.60
2019-05-05T22:25:50.315Z,30.37
2019-05-05T22:28:26.514Z,30.37
2019-05-05T22:31:01.395Z,30.67
2019-05-05T22:33:36.144Z,30.60
2019-05-05T22:36:10.886Z,31.00
2019-05-05T22:38:45.629Z,31.00
2019-05-05T22:41:20.428Z,31.37
2019-05-05T22:43:55.247Z,31.17
2019-05-05T22:46:29.979Z,30.73
2019-05-05T22:49:05.036Z,30.57
2019-05-05T22:51:39.912Z,30.67
2019-05-05T22:54:15.171Z,30.57
2019-05-05T22:56:51.412Z,31.03
2019-05-05T22:59:26.258Z,30.83
2019-05-05T23:02:01.178Z,31.70
2019-05-05T23:04:51.579Z,31.30
2019-05-05T23:07:34.794Z,30.63
2019-05-05T23:10:09.342Z,30.40
2019-05-05T23:12:44.153Z,30.90
2019-05-05T23:15:20.027Z,31.10
2019-05-05T23:18:00.556Z,31.00
2019-05-05T23:20:50.063Z,30.07
2019-05-05T23:23:35.121Z,30.43
2019-05-05T23:26:13.854Z,29.87
2019-05-05T23:28:48.046Z,30.40
2019-05-05T23:31:24.122Z,30.70
2019-05-05T23:34:00.066Z,30.73
2019-05-05T23:36:34.956Z,30.60
2019-05-05T23:39:10.048Z,30.57
2019-05-05T23:41:44.779Z,31.33
2019-05-05T23:44:19.813Z,30.83
2019-05-05T23:46:54.615Z,31.03
2019-05-05T23:49:29.366Z,31.50
2019-05-05T23:52:06.673Z,31.10
2019-05-05T23:54:41.424Z,31.17
2019-05-05T23:57:16.212Z,31.27
2019-05-05T23:59:51.056Z,31.23
